sensor_id;sensor_type;location;lat;lon;timestamp;temperature;humidity
49579;DHT22;35483;50.828;3.228;2023-08-17T00:00:20;19.80;84.90
49579;DHT22;35483;50.828;3.228;2023-08-17T00:02:46;19.80;84.90
49579;DHT22;35483;50.828;3.228;2023-08-17T00:05:12;19.80;85.00
49579;DHT22;35483;50.828;3.228;2023-08-17T00:07:38;19.80;85.00
49579;DHT22;35483;50.828;3.228;2023-08-17T00:10:04;19.70;85.00
49579;DHT22;35483;50.828;3.228;2023-08-17T00:12:30;19.70;85.10
49579;DHT22;35483;50.828;3.228;2023-08-17T00:14:55;19.70;85.30
49579;DHT22;35483;50.828;3.228;2023-08-17T00:17:22;19.70;85.20
49579;DHT22;35483;50.828;3.228;2023-08-17T00:19:48;19.70;85.40
49579;DHT22;35483;50.828;3.228;2023-08-17T00:22:14;19.70;85.40
49579;DHT22;35483;50.828;3.228;2023-08-17T00:24:41;19.70;85.50
49579;DHT22;35483;50.828;3.228;2023-08-17T00:27:10;19.60;85.70
49579;DHT22;35483;50.828;3.228;2023-08-17T00:29:36;19.60;85.60
49579;DHT22;35483;50.828;3.228;2023-08-17T00:32:03;19.60;85.50
49579;DHT22;35483;50.828;3.228;2023-08-17T00:34:28;19.60;85.70
49579;DHT22;35483;50.828;3.228;2023-08-17T00:36:54;19.50;85.90
49579;DHT22;35483;50.828;3.228;2023-08-17T00:39:20;19.50;85.90
49579;DHT22;35483;50.828;3.228;2023-08-17T00:41:46;19.40;86.00
49579;DHT22;35483;50.828;3.228;2023-08-17T00:44:12;19.40;86.00
49579;DHT22;35483;50.828;3.228;2023-08-17T00:46:38;19.40;86.20
49579;DHT22;35483;50.828;3.228;2023-08-17T00:49:05;19.40;86.10
49579;DHT22;35483;50.828;3.228;2023-08-17T00:51:32;19.30;86.20
49579;DHT22;35483;50.828;3.228;2023-08-17T00:53:59;19.40;86.20
49579;DHT22;35483;50.828;3.228;2023-08-17T00:56:26;19.30;86.20
49579;DHT22;35483;50.828;3.228;2023-08-17T00:58:53;19.30;86.40
49579;DHT22;35483;50.828;3.228;2023-08-17T01:01:19;19.30;86.20
49579;DHT22;35483;50.828;3.228;2023-08-17T01:03:46;19.30;86.40
49579;DHT22;35483;50.828;3.228;2023-08-17T01:06:11;19.30;86.20
49579;DHT22;35483;50.828;3.228;2023-08-17T01:08:38;19.30;86.40
49579;DHT22;35483;50.828;3.228;2023-08-17T01:16:42;19.30;89.80
49579;DHT22;35483;50.828;3.228;2023-08-17T01:19:08;19.20;87.40
49579;DHT22;35483;50.828;3.228;2023-08-17T01:21:41;19.20;86.00
49579;DHT22;35483;50.828;3.228;2023-08-17T01:24:11;19.20;86.60
49579;DHT22;35483;50.828;3.228;2023-08-17T01:26:37;19.20;86.30
49579;DHT22;35483;50.828;3.228;2023-08-17T01:29:03;19.20;87.00
49579;DHT22;35483;50.828;3.228;2023-08-17T01:31:32;19.10;86.30
49579;DHT22;35483;50.828;3.228;2023-08-17T01:34:06;19.10;86.50
49579;DHT22;35483;50.828;3.228;2023-08-17T01:36:42;19.10;87.00
49579;DHT22;35483;50.828;3.228;2023-08-17T01:39:10;19.10;87.20
49579;DHT22;35483;50.828;3.228;2023-08-17T01:41:38;19.10;86.20
49579;DHT22;35483;50.828;3.228;2023-08-17T01:44:05;19.10;87.00
49579;DHT22;35483;50.828;3.228;2023-08-17T01:46:33;19.00;86.30
49579;DHT22;35483;50.828;3.228;2023-08-17T01:48:59;19.00;86.60
49579;DHT22;35483;50.828;3.228;2023-08-17T01:51:25;19.00;86.20
49579;DHT22;35483;50.828;3.228;2023-08-17T01:53:51;19.00;86.40
49579;DHT22;35483;50.828;3.228;2023-08-17T01:56:17;19.00;86.60
49579;DHT22;35483;50.828;3.228;2023-08-17T01:58:43;19.00;86.70
49579;DHT22;35483;50.828;3.228;2023-08-17T02:01:09;19.00;86.60
49579;DHT22;35483;50.828;3.228;2023-08-17T02:03:35;18.90;86.60
49579;DHT22;35483;50.828;3.228;2023-08-17T02:06:01;18.90;86.70
49579;DHT22;35483;50.828;3.228;2023-08-17T02:08:27;18.90;86.40
49579;DHT22;35483;50.828;3.228;2023-08-17T02:10:53;18.90;86.50
49579;DHT22;35483;50.828;3.228;2023-08-17T02:13:19;18.90;86.80
49579;DHT22;35483;50.828;3.228;2023-08-17T02:15:46;18.80;87.20
49579;DHT22;35483;50.828;3.228;2023-08-17T02:18:12;18.80;87.30
49579;DHT22;35483;50.828;3.228;2023-08-17T02:20:37;18.80;87.00
49579;DHT22;35483;50.828;3.228;2023-08-17T02:23:03;18.80;87.00
49579;DHT22;35483;50.828;3.228;2023-08-17T02:25:29;18.80;86.80
49579;DHT22;35483;50.828;3.228;2023-08-17T02:28:02;18.80;86.80
49579;DHT22;35483;50.828;3.228;2023-08-17T02:30:28;18.80;87.00
49579;DHT22;35483;50.828;3.228;2023-08-17T02:32:54;18.80;87.10
49579;DHT22;35483;50.828;3.228;2023-08-17T02:35:20;18.70;86.80
49579;DHT22;35483;50.828;3.228;2023-08-17T02:37:46;18.80;87.00
49579;DHT22;35483;50.828;3.228;2023-08-17T02:40:12;18.70;87.20
49579;DHT22;35483;50.828;3.228;2023-08-17T02:42:38;18.70;87.10
49579;DHT22;35483;50.828;3.228;2023-08-17T02:45:07;18.70;86.90
49579;DHT22;35483;50.828;3.228;2023-08-17T02:47:33;18.70;87.20
49579;DHT22;35483;50.828;3.228;2023-08-17T02:49:58;18.70;87.20
49579;DHT22;35483;50.828;3.228;2023-08-17T02:52:24;18.70;86.90
49579;DHT22;35483;50.828;3.228;2023-08-17T02:54:50;18.70;87.10
49579;DHT22;35483;50.828;3.228;2023-08-17T02:57:16;18.70;87.50
49579;DHT22;35483;50.828;3.228;2023-08-17T02:59:42;18.70;87.50
49579;DHT22;35483;50.828;3.228;2023-08-17T03:02:07;18.60;87.20
49579;DHT22;35483;50.828;3.228;2023-08-17T03:04:33;18.60;87.10
49579;DHT22;35483;50.828;3.228;2023-08-17T03:06:59;18.70;87.20
49579;DHT22;35483;50.828;3.228;2023-08-17T03:09:25;18.70;87.20
49579;DHT22;35483;50.828;3.228;2023-08-17T03:11:51;18.60;87.00
49579;DHT22;35483;50.828;3.228;2023-08-17T03:14:16;18.60;87.20
49579;DHT22;35483;50.828;3.228;2023-08-17T03:16:42;18.60;87.10
49579;DHT22;35483;50.828;3.228;2023-08-17T03:19:08;18.60;87.40
49579;DHT22;35483;50.828;3.228;2023-08-17T03:21:36;18.60;87.30
49579;DHT22;35483;50.828;3.228;2023-08-17T03:24:02;18.60;87.30
49579;DHT22;35483;50.828;3.228;2023-08-17T03:26:28;18.50;87.70
49579;DHT22;35483;50.828;3.228;2023-08-17T03:28:54;18.60;87.70
49579;DHT22;35483;50.828;3.228;2023-08-17T03:31:21;18.50;87.40
49579;DHT22;35483;50.828;3.228;2023-08-17T03:33:47;18.50;87.70
49579;DHT22;35483;50.828;3.228;2023-08-17T03:36:13;18.50;88.30
49579;DHT22;35483;50.828;3.228;2023-08-17T03:38:39;18.50;88.10
49579;DHT22;35483;50.828;3.228;2023-08-17T03:41:06;18.50;87.90
49579;DHT22;35483;50.828;3.228;2023-08-17T03:43:31;18.40;88.10
49579;DHT22;35483;50.828;3.228;2023-08-17T03:45:57;18.50;87.80
49579;DHT22;35483;50.828;3.228;2023-08-17T03:48:23;18.40;87.80
49579;DHT22;35483;50.828;3.228;2023-08-17T03:50:53;18.50;87.80
49579;DHT22;35483;50.828;3.228;2023-08-17T03:53:20;18.40;88.30
49579;DHT22;35483;50.828;3.228;2023-08-17T03:55:47;18.40;88.00
49579;DHT22;35483;50.828;3.228;2023-08-17T03:58:14;18.40;88.20
49579;DHT22;35483;50.828;3.228;2023-08-17T04:00:39;18.40;88.10
49579;DHT22;35483;50.828;3.228;2023-08-17T04:03:06;18.40;88.20
49579;DHT22;35483;50.828;3.228;2023-08-17T04:05:32;18.30;87.90
49579;DHT22;35483;50.828;3.228;2023-08-17T04:07:59;18.40;88.00
49579;DHT22;35483;50.828;3.228;2023-08-17T04:10:28;18.40;88.00
49579;DHT22;35483;50.828;3.228;2023-08-17T04:12:54;18.30;88.10
49579;DHT22;35483;50.828;3.228;2023-08-17T04:15:19;18.30;88.00
49579;DHT22;35483;50.828;3.228;2023-08-17T04:17:45;18.30;88.20
49579;DHT22;35483;50.828;3.228;2023-08-17T04:20:11;18.30;88.60
49579;DHT22;35483;50.828;3.228;2023-08-17T04:22:37;18.30;88.30
49579;DHT22;35483;50.828;3.228;2023-08-17T04:25:03;18.20;88.30
49579;DHT22;35483;50.828;3.228;2023-08-17T04:27:28;18.30;88.60
49579;DHT22;35483;50.828;3.228;2023-08-17T04:29:54;18.20;88.50
49579;DHT22;35483;50.828;3.228;2023-08-17T04:32:20;18.20;88.70
49579;DHT22;35483;50.828;3.228;2023-08-17T04:34:46;18.10;88.70
49579;DHT22;35483;50.828;3.228;2023-08-17T04:37:12;18.20;88.80
49579;DHT22;35483;50.828;3.228;2023-08-17T04:39:38;18.20;88.60
49579;DHT22;35483;50.828;3.228;2023-08-17T04:42:04;18.20;88.70
49579;DHT22;35483;50.828;3.228;2023-08-17T04:44:30;18.20;88.80
49579;DHT22;35483;50.828;3.228;2023-08-17T04:46:55;18.10;88.70
49579;DHT22;35483;50.828;3.228;2023-08-17T04:49:21;18.20;88.60
49579;DHT22;35483;50.828;3.228;2023-08-17T04:51:47;18.20;88.80
49579;DHT22;35483;50.828;3.228;2023-08-17T04:54:13;18.20;88.50
49579;DHT22;35483;50.828;3.228;2023-08-17T04:56:38;18.20;88.40
49579;DHT22;35483;50.828;3.228;2023-08-17T04:59:04;18.20;88.70
49579;DHT22;35483;50.828;3.228;2023-08-17T05:01:30;18.20;88.40
49579;DHT22;35483;50.828;3.228;2023-08-17T05:03:57;18.30;88.40
49579;DHT22;35483;50.828;3.228;2023-08-17T05:06:23;18.30;88.70
49579;DHT22;35483;50.828;3.228;2023-08-17T05:08:48;18.30;88.40
49579;DHT22;35483;50.828;3.228;2023-08-17T05:11:14;18.30;88.30
49579;DHT22;35483;50.828;3.228;2023-08-17T05:13:40;18.30;88.30
49579;DHT22;35483;50.828;3.228;2023-08-17T05:16:06;18.40;88.30
49579;DHT22;35483;50.828;3.228;2023-08-17T05:18:31;18.40;88.70
49579;DHT22;35483;50.828;3.228;2023-08-17T05:20:57;18.40;88.40
49579;DHT22;35483;50.828;3.228;2023-08-17T05:23:24;18.40;88.20
49579;DHT22;35483;50.828;3.228;2023-08-17T05:25:51;18.50;88.40
49579;DHT22;35483;50.828;3.228;2023-08-17T05:28:16;18.50;88.20
49579;DHT22;35483;50.828;3.228;2023-08-17T05:30:43;18.50;88.20
49579;DHT22;35483;50.828;3.228;2023-08-17T05:33:09;18.60;88.40
49579;DHT22;35483;50.828;3.228;2023-08-17T05:35:35;18.70;88.30
49579;DHT22;35483;50.828;3.228;2023-08-17T05:38:01;18.70;88.20
49579;DHT22;35483;50.828;3.228;2023-08-17T05:40:29;18.70;88.10
49579;DHT22;35483;50.828;3.228;2023-08-17T05:42:57;18.80;88.60
49579;DHT22;35483;50.828;3.228;2023-08-17T05:45:23;18.80;88.20
49579;DHT22;35483;50.828;3.228;2023-08-17T05:47:49;18.80;88.00
49579;DHT22;35483;50.828;3.228;2023-08-17T05:50:15;18.90;88.10
49579;DHT22;35483;50.828;3.228;2023-08-17T05:52:41;18.90;88.10
49579;DHT22;35483;50.828;3.228;2023-08-17T05:55:07;18.90;88.20
49579;DHT22;35483;50.828;3.228;2023-08-17T05:57:33;18.90;88.20
49579;DHT22;35483;50.828;3.228;2023-08-17T05:59:59;18.90;88.00
49579;DHT22;35483;50.828;3.228;2023-08-17T06:02:25;18.90;88.00
49579;DHT22;35483;50.828;3.228;2023-08-17T06:04:50;19.00;87.90
49579;DHT22;35483;50.828;3.228;2023-08-17T06:07:16;19.10;88.10
49579;DHT22;35483;50.828;3.228;2023-08-17T06:09:42;19.10;88.70
49579;DHT22;35483;50.828;3.228;2023-08-17T06:12:08;19.10;88.60
49579;DHT22;35483;50.828;3.228;2023-08-17T06:14:34;19.10;88.50
49579;DHT22;35483;50.828;3.228;2023-08-17T06:17:00;19.20;88.50
49579;DHT22;35483;50.828;3.228;2023-08-17T06:19:26;19.20;88.10
49579;DHT22;35483;50.828;3.228;2023-08-17T06:21:52;19.30;88.30
49579;DHT22;35483;50.828;3.228;2023-08-17T06:24:18;19.30;88.10
49579;DHT22;35483;50.828;3.228;2023-08-17T06:26:44;19.30;88.20
49579;DHT22;35483;50.828;3.228;2023-08-17T06:29:11;19.40;88.00
49579;DHT22;35483;50.828;3.228;2023-08-17T06:31:37;19.50;88.20
49579;DHT22;35483;50.828;3.228;2023-08-17T06:34:03;19.50;88.00
49579;DHT22;35483;50.828;3.228;2023-08-17T06:36:32;19.60;87.90
49579;DHT22;35483;50.828;3.228;2023-08-17T06:38:58;19.60;88.10
49579;DHT22;35483;50.828;3.228;2023-08-17T06:41:24;19.60;87.90
49579;DHT22;35483;50.828;3.228;2023-08-17T06:43:51;19.70;88.50
49579;DHT22;35483;50.828;3.228;2023-08-17T06:46:17;19.70;88.40
49579;DHT22;35483;50.828;3.228;2023-08-17T06:48:43;19.70;87.90
49579;DHT22;35483;50.828;3.228;2023-08-17T06:51:09;19.80;87.60
49579;DHT22;35483;50.828;3.228;2023-08-17T06:53:36;19.80;87.60
49579;DHT22;35483;50.828;3.228;2023-08-17T06:56:02;19.80;87.90
49579;DHT22;35483;50.828;3.228;2023-08-17T06:58:27;19.90;87.70
49579;DHT22;35483;50.828;3.228;2023-08-17T07:00:53;19.90;87.50
49579;DHT22;35483;50.828;3.228;2023-08-17T07:03:19;19.90;87.90
49579;DHT22;35483;50.828;3.228;2023-08-17T07:05:45;20.00;87.90
49579;DHT22;35483;50.828;3.228;2023-08-17T07:08:11;20.10;87.50
49579;DHT22;35483;50.828;3.228;2023-08-17T07:10:38;20.10;87.60
49579;DHT22;35483;50.828;3.228;2023-08-17T07:13:04;20.20;87.70
49579;DHT22;35483;50.828;3.228;2023-08-17T07:15:31;20.30;87.70
49579;DHT22;35483;50.828;3.228;2023-08-17T07:17:57;20.30;87.70
49579;DHT22;35483;50.828;3.228;2023-08-17T07:20:23;20.40;87.60
49579;DHT22;35483;50.828;3.228;2023-08-17T07:22:48;20.50;87.70
49579;DHT22;35483;50.828;3.228;2023-08-17T07:25:14;20.60;87.60
49579;DHT22;35483;50.828;3.228;2023-08-17T07:27:41;20.70;87.30
49579;DHT22;35483;50.828;3.228;2023-08-17T07:30:07;20.90;87.00
49579;DHT22;35483;50.828;3.228;2023-08-17T07:32:34;21.00;86.70
49579;DHT22;35483;50.828;3.228;2023-08-17T07:35:00;21.00;86.90
49579;DHT22;35483;50.828;3.228;2023-08-17T07:37:25;21.00;86.80
49579;DHT22;35483;50.828;3.228;2023-08-17T07:39:58;20.80;86.90
49579;DHT22;35483;50.828;3.228;2023-08-17T07:42:24;20.80;86.90
49579;DHT22;35483;50.828;3.228;2023-08-17T07:44:50;20.80;86.80
49579;DHT22;35483;50.828;3.228;2023-08-17T07:47:15;20.80;87.00
49579;DHT22;35483;50.828;3.228;2023-08-17T07:49:41;20.70;86.90
49579;DHT22;35483;50.828;3.228;2023-08-17T07:52:07;20.80;87.20
49579;DHT22;35483;50.828;3.228;2023-08-17T07:54:33;20.70;87.20
49579;DHT22;35483;50.828;3.228;2023-08-17T07:56:59;20.70;87.00
49579;DHT22;35483;50.828;3.228;2023-08-17T07:59:25;20.70;87.30
49579;DHT22;35483;50.828;3.228;2023-08-17T08:01:51;20.80;87.30
49579;DHT22;35483;50.828;3.228;2023-08-17T08:04:16;20.80;87.10
49579;DHT22;35483;50.828;3.228;2023-08-17T08:06:42;20.90;87.30
49579;DHT22;35483;50.828;3.228;2023-08-17T08:09:08;20.90;87.30
49579;DHT22;35483;50.828;3.228;2023-08-17T08:11:34;21.00;87.30
49579;DHT22;35483;50.828;3.228;2023-08-17T08:14:00;21.00;87.30
49579;DHT22;35483;50.828;3.228;2023-08-17T08:16:27;21.10;87.20
49579;DHT22;35483;50.828;3.228;2023-08-17T08:18:53;21.10;87.20
49579;DHT22;35483;50.828;3.228;2023-08-17T08:21:18;21.10;87.10
49579;DHT22;35483;50.828;3.228;2023-08-17T08:23:44;21.20;87.10
49579;DHT22;35483;50.828;3.228;2023-08-17T08:26:10;21.20;87.10
49579;DHT22;35483;50.828;3.228;2023-08-17T08:28:35;21.20;87.80
49579;DHT22;35483;50.828;3.228;2023-08-17T08:31:02;21.20;87.10
49579;DHT22;35483;50.828;3.228;2023-08-17T08:33:31;21.20;87.20
49579;DHT22;35483;50.828;3.228;2023-08-17T08:35:57;21.20;87.10
49579;DHT22;35483;50.828;3.228;2023-08-17T08:38:22;21.30;87.10
49579;DHT22;35483;50.828;3.228;2023-08-17T08:40:48;21.30;87.30
49579;DHT22;35483;50.828;3.228;2023-08-17T08:43:14;21.40;87.20
49579;DHT22;35483;50.828;3.228;2023-08-17T08:45:44;21.50;87.20
49579;DHT22;35483;50.828;3.228;2023-08-17T08:48:11;21.60;87.20
49579;DHT22;35483;50.828;3.228;2023-08-17T08:50:40;21.80;86.80
49579;DHT22;35483;50.828;3.228;2023-08-17T08:53:17;22.00;86.60
49579;DHT22;35483;50.828;3.228;2023-08-17T08:55:52;22.30;86.80
49579;DHT22;35483;50.828;3.228;2023-08-17T08:58:21;22.50;86.40
49579;DHT22;35483;50.828;3.228;2023-08-17T09:00:47;22.60;86.30
49579;DHT22;35483;50.828;3.228;2023-08-17T09:03:15;22.70;86.20
49579;DHT22;35483;50.828;3.228;2023-08-17T09:05:45;22.80;86.10
49579;DHT22;35483;50.828;3.228;2023-08-17T09:08:12;22.90;86.10
49579;DHT22;35483;50.828;3.228;2023-08-17T09:10:38;22.90;86.10
49579;DHT22;35483;50.828;3.228;2023-08-17T09:13:04;23.00;86.40
49579;DHT22;35483;50.828;3.228;2023-08-17T09:15:30;23.00;86.00
49579;DHT22;35483;50.828;3.228;2023-08-17T09:17:56;23.00;86.10
49579;DHT22;35483;50.828;3.228;2023-08-17T09:20:40;23.00;86.10
49579;DHT22;35483;50.828;3.228;2023-08-17T09:23:19;23.00;85.90
49579;DHT22;35483;50.828;3.228;2023-08-17T09:25:49;22.90;86.10
49579;DHT22;35483;50.828;3.228;2023-08-17T09:28:19;22.90;86.20
49579;DHT22;35483;50.828;3.228;2023-08-17T09:31:01;22.90;86.10
49579;DHT22;35483;50.828;3.228;2023-08-17T09:33:30;22.90;86.00
49579;DHT22;35483;50.828;3.228;2023-08-17T09:35:58;22.90;86.10
49579;DHT22;35483;50.828;3.228;2023-08-17T09:38:24;22.90;86.20
49579;DHT22;35483;50.828;3.228;2023-08-17T09:40:50;22.80;86.30
49579;DHT22;35483;50.828;3.228;2023-08-17T09:43:18;22.90;86.30
49579;DHT22;35483;50.828;3.228;2023-08-17T09:45:44;22.90;86.20
49579;DHT22;35483;50.828;3.228;2023-08-17T09:48:15;22.90;86.20
49579;DHT22;35483;50.828;3.228;2023-08-17T09:50:42;22.90;86.20
49579;DHT22;35483;50.828;3.228;2023-08-17T09:53:15;23.00;86.20
49579;DHT22;35483;50.828;3.228;2023-08-17T09:55:42;23.10;86.00
49579;DHT22;35483;50.828;3.228;2023-08-17T09:58:09;23.10;85.90
49579;DHT22;35483;50.828;3.228;2023-08-17T10:00:34;23.20;85.80
49579;DHT22;35483;50.828;3.228;2023-08-17T10:03:04;23.40;85.70
49579;DHT22;35483;50.828;3.228;2023-08-17T10:05:34;23.50;85.30
49579;DHT22;35483;50.828;3.228;2023-08-17T10:08:02;23.60;85.20
49579;DHT22;35483;50.828;3.228;2023-08-17T10:10:30;23.70;85.20
49579;DHT22;35483;50.828;3.228;2023-08-17T10:13:24;23.80;85.30
49579;DHT22;35483;50.828;3.228;2023-08-17T10:16:19;24.00;85.00
49579;DHT22;35483;50.828;3.228;2023-08-17T10:19:42;24.20;84.50
49579;DHT22;35483;50.828;3.228;2023-08-17T10:22:18;24.30;84.50
49579;DHT22;35483;50.828;3.228;2023-08-17T10:24:46;24.40;84.70
49579;DHT22;35483;50.828;3.228;2023-08-17T10:27:13;24.50;85.00
49579;DHT22;35483;50.828;3.228;2023-08-17T10:29:39;24.60;85.00
49579;DHT22;35483;50.828;3.228;2023-08-17T10:32:06;24.60;84.80
49579;DHT22;35483;50.828;3.228;2023-08-17T10:34:34;24.70;84.90
49579;DHT22;35483;50.828;3.228;2023-08-17T10:37:00;24.70;84.90
49579;DHT22;35483;50.828;3.228;2023-08-17T10:39:28;24.70;85.00
49579;DHT22;35483;50.828;3.228;2023-08-17T10:41:56;24.70;85.00
49579;DHT22;35483;50.828;3.228;2023-08-17T10:44:43;24.70;84.70
49579;DHT22;35483;50.828;3.228;2023-08-17T10:47:26;24.70;84.70
49579;DHT22;35483;50.828;3.228;2023-08-17T10:49:57;24.70;84.20
49579;DHT22;35483;50.828;3.228;2023-08-17T10:52:33;24.80;84.70
49579;DHT22;35483;50.828;3.228;2023-08-17T10:55:01;24.80;84.20
49579;DHT22;35483;50.828;3.228;2023-08-17T10:57:42;24.90;84.80
49579;DHT22;35483;50.828;3.228;2023-08-17T11:00:19;24.90;84.30
49579;DHT22;35483;50.828;3.228;2023-08-17T11:02:57;25.00;84.20
49579;DHT22;35483;50.828;3.228;2023-08-17T11:13:45;25.40;84.70
49579;DHT22;35483;50.828;3.228;2023-08-17T11:16:16;25.50;84.60
49579;DHT22;35483;50.828;3.228;2023-08-17T11:18:46;25.50;83.90
49579;DHT22;35483;50.828;3.228;2023-08-17T11:21:12;25.50;84.60
49579;DHT22;35483;50.828;3.228;2023-08-17T11:23:38;25.60;84.60
49579;DHT22;35483;50.828;3.228;2023-08-17T11:26:04;25.70;84.50
49579;DHT22;35483;50.828;3.228;2023-08-17T11:28:31;25.70;84.40
49579;DHT22;35483;50.828;3.228;2023-08-17T11:31:03;25.80;84.50
49579;DHT22;35483;50.828;3.228;2023-08-17T11:33:30;25.80;84.50
49579;DHT22;35483;50.828;3.228;2023-08-17T11:35:57;25.80;84.50
49579;DHT22;35483;50.828;3.228;2023-08-17T11:38:23;25.90;84.60
49579;DHT22;35483;50.828;3.228;2023-08-17T11:40:49;25.90;84.40
49579;DHT22;35483;50.828;3.228;2023-08-17T11:43:16;25.90;84.50
49579;DHT22;35483;50.828;3.228;2023-08-17T11:45:42;25.90;84.40
49579;DHT22;35483;50.828;3.228;2023-08-17T11:48:08;25.80;84.60
49579;DHT22;35483;50.828;3.228;2023-08-17T11:50:35;25.70;84.70
49579;DHT22;35483;50.828;3.228;2023-08-17T11:53:00;25.80;84.60
49579;DHT22;35483;50.828;3.228;2023-08-17T11:55:26;25.90;84.20
49579;DHT22;35483;50.828;3.228;2023-08-17T11:57:52;25.80;84.40
49579;DHT22;35483;50.828;3.228;2023-08-17T12:00:20;25.80;84.60
49579;DHT22;35483;50.828;3.228;2023-08-17T12:02:50;25.70;84.70
49579;DHT22;35483;50.828;3.228;2023-08-17T12:05:23;25.70;84.50
49579;DHT22;35483;50.828;3.228;2023-08-17T12:07:55;25.70;83.70
49579;DHT22;35483;50.828;3.228;2023-08-17T12:10:21;25.60;84.70
49579;DHT22;35483;50.828;3.228;2023-08-17T12:12:50;25.60;84.90
49579;DHT22;35483;50.828;3.228;2023-08-17T12:15:19;25.50;85.00
49579;DHT22;35483;50.828;3.228;2023-08-17T12:17:49;25.60;84.80
49579;DHT22;35483;50.828;3.228;2023-08-17T12:20:17;25.50;84.70
49579;DHT22;35483;50.828;3.228;2023-08-17T12:22:43;25.60;84.80
49579;DHT22;35483;50.828;3.228;2023-08-17T12:25:10;25.50;84.90
49579;DHT22;35483;50.828;3.228;2023-08-17T12:27:36;25.40;84.90
49579;DHT22;35483;50.828;3.228;2023-08-17T12:30:02;25.40;85.00
49579;DHT22;35483;50.828;3.228;2023-08-17T12:32:28;25.30;85.10
49579;DHT22;35483;50.828;3.228;2023-08-17T12:34:54;25.20;85.20
49579;DHT22;35483;50.828;3.228;2023-08-17T12:37:21;25.00;85.10
49579;DHT22;35483;50.828;3.228;2023-08-17T12:39:47;25.00;85.10
49579;DHT22;35483;50.828;3.228;2023-08-17T12:42:13;25.00;85.30
49579;DHT22;35483;50.828;3.228;2023-08-17T12:44:43;25.00;85.20
49579;DHT22;35483;50.828;3.228;2023-08-17T12:47:09;25.00;85.20
49579;DHT22;35483;50.828;3.228;2023-08-17T12:49:35;25.00;85.30
49579;DHT22;35483;50.828;3.228;2023-08-17T12:52:01;25.00;85.20
49579;DHT22;35483;50.828;3.228;2023-08-17T12:54:27;25.00;85.20
49579;DHT22;35483;50.828;3.228;2023-08-17T12:56:53;25.00;85.20
49579;DHT22;35483;50.828;3.228;2023-08-17T12:59:18;24.90;85.30
49579;DHT22;35483;50.828;3.228;2023-08-17T13:01:44;24.80;85.50
49579;DHT22;35483;50.828;3.228;2023-08-17T13:04:10;24.80;85.50
49579;DHT22;35483;50.828;3.228;2023-08-17T13:06:35;24.80;85.50
49579;DHT22;35483;50.828;3.228;2023-08-17T13:09:01;24.70;85.40
49579;DHT22;35483;50.828;3.228;2023-08-17T13:11:27;24.80;85.40
49579;DHT22;35483;50.828;3.228;2023-08-17T13:13:53;24.90;85.40
49579;DHT22;35483;50.828;3.228;2023-08-17T13:16:18;24.90;85.50
49579;DHT22;35483;50.828;3.228;2023-08-17T13:18:44;24.90;85.40
49579;DHT22;35483;50.828;3.228;2023-08-17T13:21:10;25.00;85.40
49579;DHT22;35483;50.828;3.228;2023-08-17T13:23:41;25.10;85.20
49579;DHT22;35483;50.828;3.228;2023-08-17T13:26:07;25.10;85.10
49579;DHT22;35483;50.828;3.228;2023-08-17T13:28:32;25.20;85.00
49579;DHT22;35483;50.828;3.228;2023-08-17T13:30:58;25.40;85.10
49579;DHT22;35483;50.828;3.228;2023-08-17T13:33:24;25.50;84.90
49579;DHT22;35483;50.828;3.228;2023-08-17T13:35:49;25.70;84.80
49579;DHT22;35483;50.828;3.228;2023-08-17T13:38:16;25.80;84.90
49579;DHT22;35483;50.828;3.228;2023-08-17T13:40:42;25.90;84.90
49579;DHT22;35483;50.828;3.228;2023-08-17T13:43:08;25.90;84.90
49579;DHT22;35483;50.828;3.228;2023-08-17T13:45:38;25.90;84.90
49579;DHT22;35483;50.828;3.228;2023-08-17T13:48:08;25.90;84.90
49579;DHT22;35483;50.828;3.228;2023-08-17T13:50:38;25.90;85.00
49579;DHT22;35483;50.828;3.228;2023-08-17T13:53:04;25.90;84.40
49579;DHT22;35483;50.828;3.228;2023-08-17T13:55:30;25.90;85.10
49579;DHT22;35483;50.828;3.228;2023-08-17T13:57:57;26.00;85.00
49579;DHT22;35483;50.828;3.228;2023-08-17T14:00:24;26.00;84.90
49579;DHT22;35483;50.828;3.228;2023-08-17T14:02:49;26.00;84.90
49579;DHT22;35483;50.828;3.228;2023-08-17T14:05:16;26.00;84.80
49579;DHT22;35483;50.828;3.228;2023-08-17T14:07:41;26.00;84.90
49579;DHT22;35483;50.828;3.228;2023-08-17T14:10:07;25.90;84.90
49579;DHT22;35483;50.828;3.228;2023-08-17T14:12:34;25.90;85.00
49579;DHT22;35483;50.828;3.228;2023-08-17T14:15:00;26.00;84.90
49579;DHT22;35483;50.828;3.228;2023-08-17T14:17:26;26.00;84.70
49579;DHT22;35483;50.828;3.228;2023-08-17T14:19:52;26.10;84.90
49579;DHT22;35483;50.828;3.228;2023-08-17T14:22:17;26.10;84.80
49579;DHT22;35483;50.828;3.228;2023-08-17T14:24:43;26.20;84.70
49579;DHT22;35483;50.828;3.228;2023-08-17T14:27:09;26.10;84.60
49579;DHT22;35483;50.828;3.228;2023-08-17T14:29:36;26.10;84.70
49579;DHT22;35483;50.828;3.228;2023-08-17T14:32:02;26.10;84.70
49579;DHT22;35483;50.828;3.228;2023-08-17T14:34:27;26.10;84.70
49579;DHT22;35483;50.828;3.228;2023-08-17T14:36:53;26.00;84.70
49579;DHT22;35483;50.828;3.228;2023-08-17T14:39:21;26.00;84.80
49579;DHT22;35483;50.828;3.228;2023-08-17T14:41:46;26.00;84.70
49579;DHT22;35483;50.828;3.228;2023-08-17T14:44:12;25.90;84.70
49579;DHT22;35483;50.828;3.228;2023-08-17T14:46:38;26.00;84.70
49579;DHT22;35483;50.828;3.228;2023-08-17T14:49:08;25.90;84.80
49579;DHT22;35483;50.828;3.228;2023-08-17T14:51:38;25.90;84.80
49579;DHT22;35483;50.828;3.228;2023-08-17T14:54:05;25.80;84.20
49579;DHT22;35483;50.828;3.228;2023-08-17T14:56:31;25.80;84.90
49579;DHT22;35483;50.828;3.228;2023-08-17T14:58:57;25.80;84.80
49579;DHT22;35483;50.828;3.228;2023-08-17T15:01:22;25.80;84.70
49579;DHT22;35483;50.828;3.228;2023-08-17T15:03:48;25.80;84.70
49579;DHT22;35483;50.828;3.228;2023-08-17T15:06:14;25.80;84.50
49579;DHT22;35483;50.828;3.228;2023-08-17T15:08:39;25.80;84.80
49579;DHT22;35483;50.828;3.228;2023-08-17T15:11:05;25.90;84.70
49579;DHT22;35483;50.828;3.228;2023-08-17T15:13:31;25.80;84.60
49579;DHT22;35483;50.828;3.228;2023-08-17T15:15:58;25.80;84.80
49579;DHT22;35483;50.828;3.228;2023-08-17T15:18:24;25.80;84.80
49579;DHT22;35483;50.828;3.228;2023-08-17T15:20:49;25.80;84.80
49579;DHT22;35483;50.828;3.228;2023-08-17T15:23:15;25.80;84.70
49579;DHT22;35483;50.828;3.228;2023-08-17T15:25:41;25.70;84.80
49579;DHT22;35483;50.828;3.228;2023-08-17T15:28:07;25.70;84.80
49579;DHT22;35483;50.828;3.228;2023-08-17T15:30:34;25.50;84.80
49579;DHT22;35483;50.828;3.228;2023-08-17T15:33:00;25.50;84.80
49579;DHT22;35483;50.828;3.228;2023-08-17T15:35:25;25.40;84.90
49579;DHT22;35483;50.828;3.228;2023-08-17T15:37:51;25.40;84.90
49579;DHT22;35483;50.828;3.228;2023-08-17T15:40:17;25.40;84.90
49579;DHT22;35483;50.828;3.228;2023-08-17T15:42:43;25.40;85.00